Terminal Aerodrome Forecast
Issued by NWS

Home | Current Version | Previous Version | Text Only | Print | Product List | Glossary On
Versions: 1 2 3 4 5 6 7 8 9 10 11 12 13 14 15 16 17 18 19 20 21 22 23 24 25 26 27 28 29 30 31 32 33 34 35 36
000
FTAK31 PANC 242332
TAFAAQ
TAF
PAAQ 242332Z 2500/2524 13005KT P6SM -SHRA SCT015 OVC025
      TEMPO 2500/2502 5SM -SHRA BR BKN015
     FM250400 15008KT P6SM -SHRA SCT035 OVC050
     FM251200 VRB04KT P6SM -SHRA BKN025 OVC040
     FM252000 14011KT P6SM -SHRA SCT030 OVC060=

USA.gov is the U.S. government's official web portal to all federal, state and local government web resources and services.